Time;durP1;ratioP1;P1;durP2;ratioP2;P2;SDS_P1;SDS_P2;PMS_P1;PMS_P2;Temp;Humidity;BMP_temperature;BMP_pressure;BME280_temperature;BME280_humidity;BME280_pressure;Samples;Min_cycle;Max_cycle;Signal;HPM_P1;HPM_P2
2022/08/01 00:00:21;;;;;;;;;;;;;;;;;;2114931;28;19924;-42
2022/08/01 00:01:22;;;;;;;;;;;;;;;;;;2114715;28;19961;-42
2022/08/01 00:02:23;;;;;;;;;;;;;;;;;;2114901;28;19974;-42
2022/08/01 00:03:24;;;;;;;;;;;;;;;;;;2114871;28;19924;-43
2022/08/01 00:04:25;;;;;;;;;;;;;;;;;;2114997;28;20146;-43
2022/08/01 00:05:25;;;;;;;;;;;;;;;;;;2114851;28;19928;-42
2022/08/01 00:06:26;;;;;;;;;;;;;;;;;;2114664;28;19924;-44
2022/08/01 00:07:27;;;;;;;;;;;;;;;;;;2114721;28;19923;-43
2022/08/01 00:08:28;;;;;;;;;;;;;;;;;;2114946;28;20008;-44
2022/08/01 00:09:29;;;;;;;;;;;;;;;;;;2114841;28;19943;-44
2022/08/01 00:10:30;;;;;;;;;;;;;;;;;;2114675;28;19927;-45
2022/08/01 00:11:31;;;;;;;;;;;;;;;;;;2109813;28;19935;-44
2022/08/01 00:12:32;;;;;;;;;;;;;;;;;;2106380;28;19946;-46
2022/08/01 00:13:32;;;;;;;;;;;;;;;;;;2106354;28;19972;-44
2022/08/01 00:14:33;;;;;;;;;;;;;;;;;;2106404;28;20366;-43
2022/08/01 00:15:34;;;;;;;;;;;;;;;;;;2106294;28;19924;-44
2022/08/01 00:16:35;;;;;;;;;;;;;;;;;;2106300;28;19950;-43
2022/08/01 00:17:36;;;;;;;;;;;;;;;;;;2106243;28;20398;-45
2022/08/01 00:18:37;;;;;;;;;;;;;;;;;;2106574;28;19931;-44
2022/08/01 00:19:37;;;;;;;;;;;;;;;;;;2108071;28;20015;-46
2022/08/01 00:20:38;;;;;;;;;;;;;;;;;;2114752;28;19924;-44
2022/08/01 00:21:39;;;;;;;;;;;;;;;;;;2114725;28;19930;-45
2022/08/01 00:22:40;;;;;;;;;;;;;;;;;;2114754;28;20304;-44
2022/08/01 00:23:41;;;;;;;;;;;;;;;;;;2114627;28;20010;-45
2022/08/01 00:24:42;;;;;;;;;;;;;;;;;;2114784;28;19945;-43
2022/08/01 00:25:43;;;;;;;;;;;;;;;;;;2114538;28;20022;-43
2022/08/01 00:26:44;;;;;;;;;;;;;;;;;;2114547;28;19953;-44
2022/08/01 00:27:45;;;;;;;;;;;;;;;;;;2114848;28;20056;-44
2022/08/01 00:28:46;;;;;;;;;;;;;;;;;;2114517;28;20377;-44
2022/08/01 00:29:47;;;;;;;;;;;;;;;;;;2114762;28;20464;-45
2022/08/01 00:31:07;;;;;;;;;;;;;;;;;;2114493;28;20436;-44
2022/08/01 00:32:08;;;;;;;;;;;;;;;;;;2114774;28;19976;-44
2022/08/01 00:33:09;;;;;;;;;;;;;;;;;;2114589;28;19930;-45
2022/08/01 00:34:10;;;;;;;;;;;;;;;;;;2114730;28;19931;-44
2022/08/01 00:35:11;;;;;;;;;;;;;;;;;;2114643;28;19924;-43
2022/08/01 00:36:12;;;;;;;;;;;;;;;;;;2114674;28;19976;-44
2022/08/01 00:37:13;;;;;;;;;;;;;;;;;;2114595;28;19924;-44
2022/08/01 00:38:16;;;;;;;;;;;;;;;;;;2114390;28;19928;-43
2022/08/01 00:39:17;;;;;;;;;;;;;;;;;;2114746;28;20288;-46
2022/08/01 00:40:18;;;;;;;;;;;;;;;;;;2114657;28;19924;-44
2022/08/01 00:41:18;;;;;;;;;;;;;;;;;;2114547;28;20026;-45
2022/08/01 00:42:19;;;;;;;;;;;;;;;;;;2114549;28;19967;-44
2022/08/01 00:43:20;;;;;;;;;;;;;;;;;;2114538;28;19970;-45
2022/08/01 00:44:21;;;;;;;;;;;;;;;;;;2114558;28;19923;-45
2022/08/01 00:45:22;;;;;;;;;;;;;;;;;;2114621;28;19959;-45
2022/08/01 00:46:23;;;;;;;;;;;;;;;;;;2114477;28;20057;-46
2022/08/01 00:47:24;;;;;;;;;;;;;;;;;;2114684;28;19963;-45
2022/08/01 00:48:25;;;;;;;;;;;;;;;;;;2114539;28;19993;-45
2022/08/01 00:49:25;;;;;;;;;;;;;;;;;;2114539;28;19970;-45
2022/08/01 00:50:26;;;;;;;;;;;;;;;;;;2114597;28;19928;-47
2022/08/01 00:51:27;;;;;;;;;;;;;;;;;;2114393;28;20011;-45
2022/08/01 00:52:28;;;;;;;;;;;;;;;;;;2114593;28;19931;-45
2022/08/01 00:53:29;;;;;;;;;;;;;;;;;;2114461;28;20524;-45
2022/08/01 00:54:39;;;;;;;;;;;;;;;;;;2114684;28;19924;-45
2022/08/01 00:55:40;;;;;;;;;;;;;;;;;;2114404;28;20440;-44
2022/08/01 00:56:41;;;;;;;;;;;;;;;;;;2114418;28;19923;-45
2022/08/01 00:57:41;;;;;;;;;;;;;;;;;;2114409;28;19962;-44
2022/08/01 00:59:02;;;;;;;;;;;;;;;;;;2114543;28;19924;-44
2022/08/01 01:00:03;;;;;;;;;;;;;;;;;;2114505;28;19924;-44
2022/08/01 01:01:04;;;;;;;;;;;;;;;;;;2114402;28;19946;-45
2022/08/01 01:02:05;;;;;;;;;;;;;;;;;;2114508;28;19930;-44
2022/08/01 01:03:15;;;;;;;;;;;;;;;;;;2114467;28;20373;-44
2022/08/01 01:04:16;;;;;;;;;;;;;;;;;;2114554;28;19935;-45
2022/08/01 01:05:17;;;;;;;;;;;;;;;;;;2114469;28;20380;-45
2022/08/01 01:06:18;;;;;;;;;;;;;;;;;;2114448;28;19946;-44
2022/08/01 01:07:19;;;;;;;;;;;;;;;;;;2114439;28;20299;-45
2022/08/01 01:08:19;;;;;;;;;;;;;;;;;;2114501;28;19923;-45
2022/08/01 01:09:20;;;;;;;;;;;;;;;;;;2114229;28;19962;-44
2022/08/01 01:10:21;;;;;;;;;;;;;;;;;;2114450;28;20389;-45
2022/08/01 01:11:22;;;;;;;;;;;;;;;;;;2110431;28;19924;-45
2022/08/01 01:12:23;;;;;;;;;;;;;;;;;;2106077;28;19931;-45
2022/08/01 01:13:24;;;;;;;;;;;;;;;;;;2106073;28;20007;-44
2022/08/01 01:14:25;;;;;;;;;;;;;;;;;;2106044;28;20011;-44
2022/08/01 01:15:26;;;;;;;;;;;;;;;;;;2105890;28;19931;-44
2022/08/01 01:16:26;;;;;;;;;;;;;;;;;;2112640;28;19976;-45
2022/08/01 01:17:27;;;;;;;;;;;;;;;;;;2114299;28;19968;-45
2022/08/01 01:18:48;;;;;;;;;;;;;;;;;;2114457;28;19973;-45
2022/08/01 01:19:49;;;;;;;;;;;;;;;;;;2114348;28;19951;-45
2022/08/01 01:20:50;;;;;;;;;;;;;;;;;;2114415;28;20445;-45
2022/08/01 01:21:51;;;;;;;;;;;;;;;;;;2114301;28;19929;-44
2022/08/01 01:22:52;;;;;;;;;;;;;;;;;;2114373;28;20400;-44
2022/08/01 01:23:53;;;;;;;;;;;;;;;;;;2114395;28;19923;-44
2022/08/01 01:24:53;;;;;;;;;;;;;;;;;;2114324;28;20006;-45
2022/08/01 01:25:54;;;;;;;;;;;;;;;;;;2114529;28;19938;-44
2022/08/01 01:26:55;;;;;;;;;;;;;;;;;;2114248;28;20002;-44
2022/08/01 01:27:56;;;;;;;;;;;;;;;;;;2114480;28;19928;-44
2022/08/01 01:28:57;;;;;;;;;;;;;;;;;;2114272;28;20364;-44
2022/08/01 01:29:58;;;;;;;;;;;;;;;;;;2114263;28;19923;-45
2022/08/01 01:31:01;;;;;;;;;;;;;;;;;;2114204;28;19923;-45
2022/08/01 01:32:02;;;;;;;;;;;;;;;;;;2114308;28;20365;-45
2022/08/01 01:33:03;;;;;;;;;;;;;;;;;;2114474;28;19928;-44
2022/08/01 01:34:04;;;;;;;;;;;;;;;;;;2114261;28;19999;-45
2022/08/01 01:35:05;;;;;;;;;;;;;;;;;;2114433;28;19924;-44
2022/08/01 01:36:06;;;;;;;;;;;;;;;;;;2114188;28;20003;-44
2022/08/01 01:37:08;;;;;;;;;;;;;;;;;;2114425;28;19930;-44
2022/08/01 01:38:08;;;;;;;;;;;;;;;;;;2114312;28;20301;-44
2022/08/01 01:39:09;;;;;;;;;;;;;;;;;;2114224;28;19948;-45
2022/08/01 01:40:10;;;;;;;;;;;;;;;;;;2114252;28;20447;-45
2022/08/01 01:41:11;;;;;;;;;;;;;;;;;;2114225;28;19928;-44
2022/08/01 01:42:12;;;;;;;;;;;;;;;;;;2114198;28;20361;-45
2022/08/01 01:43:13;;;;;;;;;;;;;;;;;;2114275;28;19924;-45
2022/08/01 01:44:14;;;;;;;;;;;;;;;;;;2114383;28;19993;-44
2022/08/01 01:45:15;;;;;;;;;;;;;;;;;;2114284;28;20448;-44
2022/08/01 01:46:16;;;;;;;;;;;;;;;;;;2114216;28;19930;-46
2022/08/01 01:47:17;;;;;;;;;;;;;;;;;;2114248;28;19931;-44
2022/08/01 01:48:17;;;;;;;;;;;;;;;;;;2114153;28;20334;-44
2022/08/01 01:49:18;;;;;;;;;;;;;;;;;;2114092;28;19931;-44
2022/08/01 01:50:19;;;;;;;;;;;;;;;;;;2115533;28;19972;-44
2022/08/01 01:51:20;;;;;;;;;;;;;;;;;;2115745;28;19977;-44
2022/08/01 01:52:21;;;;;;;;;;;;;;;;;;2115793;28;19969;-42
2022/08/01 01:53:22;;;;;;;;;;;;;;;;;;2115671;28;20437;-43
2022/08/01 01:54:23;;;;;;;;;;;;;;;;;;2115514;28;19927;-43
2022/08/01 01:55:24;;;;;;;;;;;;;;;;;;2115908;28;19924;-43
2022/08/01 01:56:24;;;;;;;;;;;;;;;;;;2115543;28;19924;-43
2022/08/01 01:57:25;;;;;;;;;;;;;;;;;;2115635;28;19924;-42
2022/08/01 01:58:26;;;;;;;;;;;;;;;;;;2115939;28;20384;-47
2022/08/01 01:59:27;;;;;;;;;;;;;;;;;;2115756;28;19930;-45
2022/08/01 02:00:28;;;;;;;;;;;;;;;;;;2115653;28;20045;-45
2022/08/01 02:01:29;;;;;;;;;;;;;;;;;;2115890;28;20348;-42
2022/08/01 02:02:51;;;;;;;;;;;;;;;;;;2115536;28;20439;-43
2022/08/01 02:03:53;;;;;;;;;;;;;;;;;;2115741;28;19924;-42
2022/08/01 02:04:54;;;;;;;;;;;;;;;;;;2115718;28;19924;-43
2022/08/01 02:05:55;;;;;;;;;;;;;;;;;;2115769;28;19927;-42
2022/08/01 02:06:56;;;;;;;;;;;;;;;;;;2115638;28;20293;-42
2022/08/01 02:07:57;;;;;;;;;;;;;;;;;;2115558;28;19959;-43
2022/08/01 02:08:59;;;;;;;;;;;;;;;;;;2115500;28;19924;-42
2022/08/01 02:10:00;;;;;;;;;;;;;;;;;;2115555;28;19924;-43
2022/08/01 02:11:20;;;;;;;;;;;;;;;;;;2114750;28;20006;-43
2022/08/01 02:12:21;;;;;;;;;;;;;;;;;;2110711;28;19924;-42
2022/08/01 02:13:22;;;;;;;;;;;;;;;;;;2115457;28;20406;-43
2022/08/01 02:14:23;;;;;;;;;;;;;;;;;;2115562;28;19970;-42
2022/08/01 02:15:24;;;;;;;;;;;;;;;;;;2115593;28;19923;-42
2022/08/01 02:16:25;;;;;;;;;;;;;;;;;;2115873;28;19928;-43
2022/08/01 02:17:25;;;;;;;;;;;;;;;;;;2115516;28;19977;-42
2022/08/01 02:18:26;;;;;;;;;;;;;;;;;;2115580;28;19928;-42
2022/08/01 02:19:27;;;;;;;;;;;;;;;;;;2115577;28;19986;-43
2022/08/01 02:20:28;;;;;;;;;;;;;;;;;;2115523;28;19923;-42
2022/08/01 02:21:29;;;;;;;;;;;;;;;;;;2115222;28;19966;-42
2022/08/01 02:22:30;;;;;;;;;;;;;;;;;;2115653;28;20019;-42
2022/08/01 02:23:31;;;;;;;;;;;;;;;;;;2115438;28;20451;-43
2022/08/01 02:24:32;;;;;;;;;;;;;;;;;;2115851;28;19963;-44
2022/08/01 02:25:32;;;;;;;;;;;;;;;;;;2115537;28;19985;-45
2022/08/01 02:26:33;;;;;;;;;;;;;;;;;;2115527;28;20296;-45
2022/08/01 02:27:34;;;;;;;;;;;;;;;;;;2115307;28;19924;-44
2022/08/01 02:28:35;;;;;;;;;;;;;;;;;;2115458;28;19949;-45
2022/08/01 02:29:36;;;;;;;;;;;;;;;;;;2115445;28;19970;-44
2022/08/01 02:30:37;;;;;;;;;;;;;;;;;;2115485;28;19931;-44
2022/08/01 02:31:38;;;;;;;;;;;;;;;;;;2115364;28;20288;-44
2022/08/01 02:32:39;;;;;;;;;;;;;;;;;;2115616;28;19924;-43
2022/08/01 02:33:40;;;;;;;;;;;;;;;;;;2115469;28;19923;-42
2022/08/01 02:34:41;;;;;;;;;;;;;;;;;;2115356;28;19924;-42
2022/08/01 02:35:42;;;;;;;;;;;;;;;;;;2115402;28;19930;-43
2022/08/01 02:37:03;;;;;;;;;;;;;;;;;;2115378;28;19930;-42
2022/08/01 02:38:04;;;;;;;;;;;;;;;;;;2115363;28;19923;-42
2022/08/01 02:39:05;;;;;;;;;;;;;;;;;;2115367;28;19970;-43
2022/08/01 02:40:06;;;;;;;;;;;;;;;;;;2115448;28;20023;-42
2022/08/01 02:41:08;;;;;;;;;;;;;;;;;;2115447;28;19934;-43
2022/08/01 02:42:09;;;;;;;;;;;;;;;;;;2115358;28;19963;-42
2022/08/01 02:43:09;;;;;;;;;;;;;;;;;;2115395;28;19931;-42
2022/08/01 02:44:10;;;;;;;;;;;;;;;;;;2115458;28;19935;-42
2022/08/01 02:45:11;;;;;;;;;;;;;;;;;;2115457;28;19926;-43
2022/08/01 02:46:12;;;;;;;;;;;;;;;;;;2115348;28;20289;-42
2022/08/01 02:47:13;;;;;;;;;;;;;;;;;;2115467;28;20049;-42
2022/08/01 02:48:14;;;;;;;;;;;;;;;;;;2115333;28;20085;-43
2022/08/01 02:49:15;;;;;;;;;;;;;;;;;;2115162;28;20410;-42
2022/08/01 02:50:16;;;;;;;;;;;;;;;;;;2115285;28;20424;-42
2022/08/01 02:51:17;;;;;;;;;;;;;;;;;;2115578;28;19944;-45
2022/08/01 02:52:19;;;;;;;;;;;;;;;;;;2115278;28;19924;-45
2022/08/01 02:53:20;;;;;;;;;;;;;;;;;;2115447;28;20452;-43
2022/08/01 02:54:21;;;;;;;;;;;;;;;;;;2115183;28;20010;-44
2022/08/01 02:55:23;;;;;;;;;;;;;;;;;;2115197;28;19924;-43
2022/08/01 02:56:24;;;;;;;;;;;;;;;;;;2115276;28;19924;-45
2022/08/01 02:57:25;;;;;;;;;;;;;;;;;;2115225;28;20403;-43
2022/08/01 02:58:30;;;;;;;;;;;;;;;;;;2115257;28;19923;-43
2022/08/01 02:59:31;;;;;;;;;;;;;;;;;;2115262;28;19952;-43
2022/08/01 03:00:31;;;;;;;;;;;;;;;;;;2115011;28;19946;-44
2022/08/01 03:01:32;;;;;;;;;;;;;;;;;;2115118;28;19924;-44
2022/08/01 03:02:33;;;;;;;;;;;;;;;;;;2115197;28;20400;-44
2022/08/01 03:03:34;;;;;;;;;;;;;;;;;;2115206;28;19924;-44
2022/08/01 03:04:35;;;;;;;;;;;;;;;;;;2115178;28;20383;-44
2022/08/01 03:05:36;;;;;;;;;;;;;;;;;;2115149;28;19965;-44
2022/08/01 03:06:37;;;;;;;;;;;;;;;;;;2115202;28;19932;-44
2022/08/01 03:07:38;;;;;;;;;;;;;;;;;;2115314;28;19931;-45
2022/08/01 03:08:40;;;;;;;;;;;;;;;;;;2114920;28;20020;-43
2022/08/01 03:09:41;;;;;;;;;;;;;;;;;;2115093;28;20338;-45
2022/08/01 03:10:42;;;;;;;;;;;;;;;;;;2115115;28;20330;-44
2022/08/01 03:11:43;;;;;;;;;;;;;;;;;;2108417;28;19924;-49
2022/08/01 03:12:44;;;;;;;;;;;;;;;;;;2106855;28;20153;-43
2022/08/01 03:13:45;;;;;;;;;;;;;;;;;;2107029;28;20045;-42
2022/08/01 03:14:46;;;;;;;;;;;;;;;;;;2106720;28;20019;-42
2022/08/01 03:15:47;;;;;;;;;;;;;;;;;;2106687;28;19981;-42
2022/08/01 03:16:47;;;;;;;;;;;;;;;;;;2106600;28;19924;-42
2022/08/01 03:17:48;;;;;;;;;;;;;;;;;;2106637;28;19970;-42
2022/08/01 03:18:49;;;;;;;;;;;;;;;;;;2106694;28;20351;-42
2022/08/01 03:19:50;;;;;;;;;;;;;;;;;;2106600;28;19981;-42
2022/08/01 03:20:51;;;;;;;;;;;;;;;;;;2106758;28;19927;-42
2022/08/01 03:21:52;;;;;;;;;;;;;;;;;;2106550;28;20128;-43
2022/08/01 03:22:53;;;;;;;;;;;;;;;;;;2106740;28;20007;-42
2022/08/01 03:23:56;;;;;;;;;;;;;;;;;;2106727;28;20010;-42
2022/08/01 03:24:57;;;;;;;;;;;;;;;;;;2106482;28;20346;-42
2022/08/01 03:25:58;;;;;;;;;;;;;;;;;;2106683;28;20191;-42
2022/08/01 03:26:59;;;;;;;;;;;;;;;;;;2106683;28;20003;-42
2022/08/01 03:28:00;;;;;;;;;;;;;;;;;;2106455;28;20349;-42
2022/08/01 03:29:01;;;;;;;;;;;;;;;;;;2106466;28;19924;-42
2022/08/01 03:30:02;;;;;;;;;;;;;;;;;;2106694;28;19924;-42
2022/08/01 03:31:02;;;;;;;;;;;;;;;;;;2106438;28;20058;-42
2022/08/01 03:32:03;;;;;;;;;;;;;;;;;;2106566;28;19970;-42
2022/08/01 03:33:04;;;;;;;;;;;;;;;;;;2106699;28;19924;-44
2022/08/01 03:34:05;;;;;;;;;;;;;;;;;;2106520;28;20393;-44
2022/08/01 03:35:06;;;;;;;;;;;;;;;;;;2106650;28;20034;-44
2022/08/01 03:36:07;;;;;;;;;;;;;;;;;;2106717;28;19979;-43
2022/08/01 03:37:09;;;;;;;;;;;;;;;;;;2106699;28;20002;-44
2022/08/01 03:38:10;;;;;;;;;;;;;;;;;;2106921;28;20016;-43
2022/08/01 03:39:16;;;;;;;;;;;;;;;;;;2106675;28;20049;-42
2022/08/01 03:40:17;;;;;;;;;;;;;;;;;;2106744;28;19925;-45
2022/08/01 03:41:20;;;;;;;;;;;;;;;;;;2106539;28;20019;-44
2022/08/01 03:42:21;;;;;;;;;;;;;;;;;;2106742;28;20377;-42
2022/08/01 03:43:22;;;;;;;;;;;;;;;;;;2106427;28;20077;-44
2022/08/01 03:44:23;;;;;;;;;;;;;;;;;;2106550;28;19924;-43
2022/08/01 03:45:24;;;;;;;;;;;;;;;;;;2106705;28;19924;-42
2022/08/01 03:46:24;;;;;;;;;;;;;;;;;;2106367;28;19924;-42
2022/08/01 03:47:26;;;;;;;;;;;;;;;;;;2106673;28;19973;-44
2022/08/01 03:48:27;;;;;;;;;;;;;;;;;;2106609;28;20698;-42
2022/08/01 03:49:28;;;;;;;;;;;;;;;;;;2106473;28;19935;-44
2022/08/01 03:50:30;;;;;;;;;;;;;;;;;;2106445;28;19931;-44
2022/08/01 03:51:31;;;;;;;;;;;;;;;;;;2106304;28;20011;-44
2022/08/01 03:52:32;;;;;;;;;;;;;;;;;;2106654;28;20377;-43
2022/08/01 03:53:33;;;;;;;;;;;;;;;;;;2106671;28;19960;-44
2022/08/01 03:54:34;;;;;;;;;;;;;;;;;;2106419;28;19947;-46
2022/08/01 03:55:35;;;;;;;;;;;;;;;;;;2106448;28;19924;-44
2022/08/01 03:56:35;;;;;;;;;;;;;;;;;;2106406;28;20381;-44
2022/08/01 03:57:36;;;;;;;;;;;;;;;;;;2106433;28;19928;-44
2022/08/01 03:58:37;;;;;;;;;;;;;;;;;;2106356;28;20023;-43
2022/08/01 03:59:38;;;;;;;;;;;;;;;;;;2106479;28;19963;-45
2022/08/01 04:00:39;;;;;;;;;;;;;;;;;;2106537;28;20375;-44
2022/08/01 04:01:40;;;;;;;;;;;;;;;;;;2106270;28;19935;-44
2022/08/01 04:02:41;;;;;;;;;;;;;;;;;;2106395;28;19989;-45
2022/08/01 04:03:42;;;;;;;;;;;;;;;;;;2106381;28;19969;-44
2022/08/01 04:04:43;;;;;;;;;;;;;;;;;;2108896;28;20316;-44
2022/08/01 04:05:44;;;;;;;;;;;;;;;;;;2115092;28;19924;-42
2022/08/01 04:06:45;;;;;;;;;;;;;;;;;;2114863;28;19923;-42
2022/08/01 04:07:46;;;;;;;;;;;;;;;;;;2114788;28;20061;-43
2022/08/01 04:08:55;;;;;;;;;;;;;;;;;;2114807;28;20014;-43
2022/08/01 04:09:56;;;;;;;;;;;;;;;;;;2114985;28;20027;-43
2022/08/01 04:10:58;;;;;;;;;;;;;;;;;;2114613;28;19928;-42
2022/08/01 04:11:59;;;;;;;;;;;;;;;;;;2106222;28;20015;-43
2022/08/01 04:13:00;;;;;;;;;;;;;;;;;;2105802;28;19930;-43
2022/08/01 04:14:01;;;;;;;;;;;;;;;;;;2106255;28;20371;-43
2022/08/01 04:15:01;;;;;;;;;;;;;;;;;;2106464;28;19931;-43
2022/08/01 04:16:03;;;;;;;;;;;;;;;;;;2106182;28;19924;-43
2022/08/01 04:17:04;;;;;;;;;;;;;;;;;;2106267;28;20394;-43
2022/08/01 04:18:06;;;;;;;;;;;;;;;;;;2106336;28;19924;-42
2022/08/01 04:19:07;;;;;;;;;;;;;;;;;;2106361;28;19928;-42
2022/08/01 04:20:08;;;;;;;;;;;;;;;;;;2106222;28;20413;-43
2022/08/01 04:21:09;;;;;;;;;;;;;;;;;;2106320;28;19951;-43
2022/08/01 04:22:10;;;;;;;;;;;;;;;;;;2106347;28;19931;-43
2022/08/01 04:23:11;;;;;;;;;;;;;;;;;;2106328;28;19961;-43
2022/08/01 04:24:11;;;;;;;;;;;;;;;;;;2106396;28;19965;-43
2022/08/01 04:25:12;;;;;;;;;;;;;;;;;;2106196;28;20339;-43
2022/08/01 04:26:13;;;;;;;;;;;;;;;;;;2106233;28;19924;-43
2022/08/01 04:27:14;;;;;;;;;;;;;;;;;;2106305;28;20039;-43
2022/08/01 04:28:16;;;;;;;;;;;;;;;;;;2106329;28;20019;-42
2022/08/01 04:29:17;;;;;;;;;;;;;;;;;;2106005;28;20525;-43
2022/08/01 04:30:17;;;;;;;;;;;;;;;;;;2106830;28;20022;-45
2022/08/01 04:31:21;;;;;;;;;;;;;;;;;;2106175;28;19928;-45
2022/08/01 04:32:22;;;;;;;;;;;;;;;;;;2106146;28;20293;-45
2022/08/01 04:33:23;;;;;;;;;;;;;;;;;;2106295;28;19971;-44
2022/08/01 04:34:24;;;;;;;;;;;;;;;;;;2106292;28;20003;-47
2022/08/01 04:35:25;;;;;;;;;;;;;;;;;;2106295;28;20011;-48
2022/08/01 04:36:45;;;;;;;;;;;;;;;;;;2106452;28;19924;-43
2022/08/01 04:37:48;;;;;;;;;;;;;;;;;;2106242;28;19934;-44
2022/08/01 04:38:48;;;;;;;;;;;;;;;;;;2106152;28;19925;-43
2022/08/01 04:39:51;;;;;;;;;;;;;;;;;;2106315;28;20271;-43
2022/08/01 04:40:51;;;;;;;;;;;;;;;;;;2106132;28;20403;-44
2022/08/01 04:41:56;;;;;;;;;;;;;;;;;;2106061;28;19930;-44
2022/08/01 04:42:56;;;;;;;;;;;;;;;;;;2106154;28;20015;-44
2022/08/01 04:43:59;;;;;;;;;;;;;;;;;;2106514;28;20019;-43
2022/08/01 04:44:59;;;;;;;;;;;;;;;;;;2106377;28;19981;-45
2022/08/01 04:46:00;;;;;;;;;;;;;;;;;;2106245;28;20441;-45
2022/08/01 04:47:02;;;;;;;;;;;;;;;;;;2106440;28;19956;-43
2022/08/01 04:48:06;;;;;;;;;;;;;;;;;;2106052;28;19924;-46
2022/08/01 04:49:07;;;;;;;;;;;;;;;;;;2106110;28;20445;-43
2022/08/01 04:50:08;;;;;;;;;;;;;;;;;;2106342;28;19938;-43
2022/08/01 04:51:08;;;;;;;;;;;;;;;;;;2106119;28;20020;-44
2022/08/01 04:52:09;;;;;;;;;;;;;;;;;;2106323;28;20285;-46
2022/08/01 04:53:14;;;;;;;;;;;;;;;;;;2106069;28;19924;-46
2022/08/01 04:54:15;;;;;;;;;;;;;;;;;;2106010;28;19925;-45
2022/08/01 04:55:16;;;;;;;;;;;;;;;;;;2106082;28;20448;-45
2022/08/01 04:56:17;;;;;;;;;;;;;;;;;;2106052;28;20410;-45
2022/08/01 04:57:18;;;;;;;;;;;;;;;;;;2106211;28;20051;-43
2022/08/01 04:58:19;;;;;;;;;;;;;;;;;;2106029;28;20052;-43
2022/08/01 05:00:39;;;;;;;;;;;;;;;;;;2106064;28;20011;-43
2022/08/01 05:01:40;;;;;;;;;;;;;;;;;;2114540;28;20002;-44
2022/08/01 05:02:41;;;;;;;;;;;;;;;;;;2114397;28;19924;-43
2022/08/01 05:03:42;;;;;;;;;;;;;;;;;;2114604;28;20015;-43
2022/08/01 05:04:43;;;;;;;;;;;;;;;;;;2114833;28;19940;-45
2022/08/01 05:05:44;;;;;;;;;;;;;;;;;;2114352;28;19963;-45
2022/08/01 05:06:45;;;;;;;;;;;;;;;;;;2114531;28;20344;-45
2022/08/01 05:07:46;;;;;;;;;;;;;;;;;;2114968;28;19924;-47
2022/08/01 05:08:47;;;;;;;;;;;;;;;;;;2114694;28;19928;-44
2022/08/01 05:09:48;;;;;;;;;;;;;;;;;;2114344;28;20037;-43
2022/08/01 05:10:49;;;;;;;;;;;;;;;;;;2114562;28;20007;-44
2022/08/01 05:11:50;;;;;;;;;;;;;;;;;;2107005;28;19988;-44
2022/08/01 05:12:51;;;;;;;;;;;;;;;;;;2106509;28;19928;-43
2022/08/01 05:13:52;;;;;;;;;;;;;;;;;;2106254;28;20328;-44
2022/08/01 05:14:52;;;;;;;;;;;;;;;;;;2106279;28;20433;-44
2022/08/01 05:15:53;;;;;;;;;;;;;;;;;;2105933;28;19994;-44
2022/08/01 05:16:54;;;;;;;;;;;;;;;;;;2106078;28;20011;-45
2022/08/01 05:17:56;;;;;;;;;;;;;;;;;;2105971;28;19980;-46
2022/08/01 05:18:56;;;;;;;;;;;;;;;;;;2106297;28;20396;-44
2022/08/01 05:19:59;;;;;;;;;;;;;;;;;;2106277;28;19940;-43
2022/08/01 05:20:59;;;;;;;;;;;;;;;;;;2105858;28;19966;-43
2022/08/01 05:22:04;;;;;;;;;;;;;;;;;;2106023;28;20012;-43
2022/08/01 05:23:06;;;;;;;;;;;;;;;;;;2106296;28;20002;-46
2022/08/01 05:24:10;;;;;;;;;;;;;;;;;;2106349;28;19931;-45
2022/08/01 05:25:11;;;;;;;;;;;;;;;;;;2107048;28;19924;-45
2022/08/01 05:26:13;;;;;;;;;;;;;;;;;;2107478;28;19931;-46
2022/08/01 05:27:15;;;;;;;;;;;;;;;;;;2107464;28;19952;-46
2022/08/01 05:28:16;;;;;;;;;;;;;;;;;;2107504;28;19931;-45
2022/08/01 05:29:19;;;;;;;;;;;;;;;;;;2107622;28;19924;-43
2022/08/01 05:30:20;;;;;;;;;;;;;;;;;;2108134;28;20344;-46
2022/08/01 05:31:21;;;;;;;;;;;;;;;;;;2107560;28;19963;-44
2022/08/01 05:32:22;;;;;;;;;;;;;;;;;;2107779;28;19959;-44
2022/08/01 05:33:23;;;;;;;;;;;;;;;;;;2107694;28;19935;-49
2022/08/01 05:34:23;;;;;;;;;;;;;;;;;;2107377;28;19971;-46
2022/08/01 05:35:25;;;;;;;;;;;;;;;;;;2107511;28;19932;-45
2022/08/01 05:36:45;;;;;;;;;;;;;;;;;;2107336;28;20412;-46
2022/08/01 05:37:46;;;;;;;;;;;;;;;;;;2107450;28;19955;-45
2022/08/01 05:38:49;;;;;;;;;;;;;;;;;;2107493;28;19926;-45
2022/08/01 05:39:49;;;;;;;;;;;;;;;;;;2107582;28;20018;-47
2022/08/01 05:40:50;;;;;;;;;;;;;;;;;;2107832;28;20316;-43
2022/08/01 05:41:51;;;;;;;;;;;;;;;;;;2107585;28;19951;-46
2022/08/01 05:42:52;;;;;;;;;;;;;;;;;;2107611;28;19959;-46
2022/08/01 05:43:53;;;;;;;;;;;;;;;;;;2107274;28;19963;-46
2022/08/01 05:44:54;;;;;;;;;;;;;;;;;;2107392;28;19982;-47
2022/08/01 05:45:55;;;;;;;;;;;;;;;;;;2107392;28;20397;-46
2022/08/01 05:46:56;;;;;;;;;;;;;;;;;;2107261;28;19924;-48
2022/08/01 05:47:57;;;;;;;;;;;;;;;;;;2107280;28;20022;-45
2022/08/01 05:48:58;;;;;;;;;;;;;;;;;;2107204;28;19924;-45
2022/08/01 05:49:59;;;;;;;;;;;;;;;;;;2107672;28;19935;-45
2022/08/01 05:51:00;;;;;;;;;;;;;;;;;;2107382;28;19947;-45
2022/08/01 05:52:01;;;;;;;;;;;;;;;;;;2107902;28;20043;-44
2022/08/01 05:53:02;;;;;;;;;;;;;;;;;;2107463;28;19924;-44
2022/08/01 05:54:03;;;;;;;;;;;;;;;;;;2107790;28;19925;-46
2022/08/01 05:55:04;;;;;;;;;;;;;;;;;;2107317;28;19931;-45
2022/08/01 05:56:05;;;;;;;;;;;;;;;;;;2107269;28;19960;-46
2022/08/01 05:57:06;;;;;;;;;;;;;;;;;;2108831;28;19924;-45
2022/08/01 05:58:07;;;;;;;;;;;;;;;;;;2115591;28;20014;-44
2022/08/01 05:59:08;;;;;;;;;;;;;;;;;;2115697;28;19924;-43
2022/08/01 06:00:09;;;;;;;;;;;;;;;;;;2116339;28;20032;-43
2022/08/01 06:01:10;;;;;;;;;;;;;;;;;;2115492;28;19962;-47
2022/08/01 06:02:11;;;;;;;;;;;;;;;;;;2115752;28;19931;-46
2022/08/01 06:03:12;;;;;;;;;;;;;;;;;;2115806;28;19954;-46
2022/08/01 06:04:13;;;;;;;;;;;;;;;;;;2115764;28;19928;-47
2022/08/01 06:05:14;;;;;;;;;;;;;;;;;;2115830;28;19924;-46
2022/08/01 06:06:14;;;;;;;;;;;;;;;;;;2116076;28;19923;-44
2022/08/01 06:07:15;;;;;;;;;;;;;;;;;;2115826;28;19924;-45
2022/08/01 06:08:16;;;;;;;;;;;;;;;;;;2115997;28;19963;-46
2022/08/01 06:09:17;;;;;;;;;;;;;;;;;;2115595;28;20392;-46
2022/08/01 06:10:18;;;;;;;;;;;;;;;;;;2115364;28;19977;-45
2022/08/01 06:11:19;;;;;;;;;;;;;;;;;;2112216;28;19924;-46
2022/08/01 06:12:19;;;;;;;;;;;;;;;;;;2107105;28;20022;-46
2022/08/01 06:13:20;;;;;;;;;;;;;;;;;;2107013;28;19967;-45
2022/08/01 06:14:21;;;;;;;;;;;;;;;;;;2107094;28;19931;-45
2022/08/01 06:15:22;;;;;;;;;;;;;;;;;;2107076;28;20404;-46
2022/08/01 06:16:23;;;;;;;;;;;;;;;;;;2107206;28;19993;-44
2022/08/01 06:17:24;;;;;;;;;;;;;;;;;;2107140;28;19974;-44
2022/08/01 06:18:25;;;;;;;;;;;;;;;;;;2107065;28;19928;-43
2022/08/01 06:19:26;;;;;;;;;;;;;;;;;;2107083;28;20015;-43
2022/08/01 06:20:27;;;;;;;;;;;;;;;;;;2107228;28;19954;-44
2022/08/01 06:21:28;;;;;;;;;;;;;;;;;;2107429;28;20387;-44
2022/08/01 06:22:29;;;;;;;;;;;;;;;;;;2106949;28;20320;-43
2022/08/01 06:23:30;;;;;;;;;;;;;;;;;;2107279;28;19924;-43
2022/08/01 06:24:32;;;;;;;;;;;;;;;;;;2107439;28;20003;-43
2022/08/01 06:25:33;;;;;;;;;;;;;;;;;;2107103;28;20018;-44
2022/08/01 06:26:36;;;;;;;;;;;;;;;;;;2106951;28;20407;-41
2022/08/01 06:27:37;;;;;;;;;;;;;;;;;;2107631;28;20002;-45
2022/08/01 06:28:38;;;;;;;;;;;;;;;;;;2107051;28;20011;-46
2022/08/01 06:29:39;;;;;;;;;;;;;;;;;;2107423;28;19943;-43
2022/08/01 06:30:40;;;;;;;;;;;;;;;;;;2107036;28;19924;-41
2022/08/01 06:31:40;;;;;;;;;;;;;;;;;;2106897;28;19970;-42
2022/08/01 06:32:41;;;;;;;;;;;;;;;;;;2106964;28;19971;-41
2022/08/01 06:33:42;;;;;;;;;;;;;;;;;;2107260;28;19999;-44
2022/08/01 06:34:43;;;;;;;;;;;;;;;;;;2107165;28;20057;-42
2022/08/01 06:35:44;;;;;;;;;;;;;;;;;;2106595;28;20292;-42
2022/08/01 06:36:45;;;;;;;;;;;;;;;;;;2107134;28;20019;-43
2022/08/01 06:37:46;;;;;;;;;;;;;;;;;;2106836;28;19924;-42
2022/08/01 06:38:47;;;;;;;;;;;;;;;;;;2107037;28;20208;-42
2022/08/01 06:39:49;;;;;;;;;;;;;;;;;;2107018;28;20010;-42
2022/08/01 06:40:50;;;;;;;;;;;;;;;;;;2107216;28;20031;-42
2022/08/01 06:41:51;;;;;;;;;;;;;;;;;;2107092;28;19928;-42
2022/08/01 06:42:52;;;;;;;;;;;;;;;;;;2107094;28;20077;-44
2022/08/01 06:43:52;;;;;;;;;;;;;;;;;;2106902;28;20274;-45
2022/08/01 06:44:53;;;;;;;;;;;;;;;;;;2106823;28;19989;-48
2022/08/01 06:45:54;;;;;;;;;;;;;;;;;;2106828;28;20472;-44
2022/08/01 06:46:58;;;;;;;;;;;;;;;;;;2106746;28;19935;-45
2022/08/01 06:47:58;;;;;;;;;;;;;;;;;;2107033;28;20007;-45
2022/08/01 06:48:59;;;;;;;;;;;;;;;;;;2106820;28;19924;-44
2022/08/01 06:50:00;;;;;;;;;;;;;;;;;;2106751;28;19924;-44
2022/08/01 06:51:07;;;;;;;;;;;;;;;;;;2106938;28;19924;-43
2022/08/01 06:52:08;;;;;;;;;;;;;;;;;;2106921;28;20446;-42
2022/08/01 06:53:10;;;;;;;;;;;;;;;;;;2106760;28;19931;-42
2022/08/01 06:54:11;;;;;;;;;;;;;;;;;;2115579;28;19963;-42
2022/08/01 06:55:12;;;;;;;;;;;;;;;;;;2115250;28;19931;-42
2022/08/01 06:56:13;;;;;;;;;;;;;;;;;;2115091;28;19923;-42
2022/08/01 06:57:13;;;;;;;;;;;;;;;;;;2115423;28;20036;-43
2022/08/01 06:58:14;;;;;;;;;;;;;;;;;;2115372;28;20170;-45
2022/08/01 06:59:15;;;;;;;;;;;;;;;;;;2115337;28;20402;-44
2022/08/01 07:00:18;;;;;;;;;;;;;;;;;;2115200;28;20357;-45
2022/08/01 07:01:19;;;;;;;;;;;;;;;;;;2115352;28;20330;-45